sensor_id;sensor_type;location;lat;lon;timestamp;pressure;altitude;pressure_sealevel;temperature;humidity
63663;BME280;49815;51.618;0.336;2022-09-09T00:01:23;99520.88;;;17.00;53.38
63663;BME280;49815;51.618;0.336;2022-09-09T00:03:43;99519.67;;;17.07;53.48
63663;BME280;49815;51.618;0.336;2022-09-09T00:06:09;99513.85;;;16.82;53.40
63663;BME280;49815;51.618;0.336;2022-09-09T00:08:37;99510.31;;;16.68;53.20
63663;BME280;49815;51.618;0.336;2022-09-09T00:10:59;99511.52;;;17.51;52.99
63663;BME280;49815;51.618;0.336;2022-09-09T00:13:23;99507.84;;;17.27;52.87
63663;BME280;49815;51.618;0.336;2022-09-09T00:15:52;99507.55;;;17.06;53.04
63663;BME280;49815;51.618;0.336;2022-09-09T00:18:18;99507.50;;;17.08;53.21
63663;BME280;49815;51.618;0.336;2022-09-09T00:20:41;99506.70;;;17.49;53.09
63663;BME280;49815;51.618;0.336;2022-09-09T00:23:10;99504.72;;;17.58;52.59
63663;BME280;49815;51.618;0.336;2022-09-09T00:25:31;99504.04;;;17.58;52.24
63663;BME280;49815;51.618;0.336;2022-09-09T00:27:53;99504.01;;;17.64;52.38
63663;BME280;49815;51.618;0.336;2022-09-09T00:30:19;99501.51;;;17.52;52.58
63663;BME280;49815;51.618;0.336;2022-09-09T00:32:44;99498.94;;;17.79;52.43
63663;BME280;49815;51.618;0.336;2022-09-09T00:35:17;99496.39;;;17.75;52.16
63663;BME280;49815;51.618;0.336;2022-09-09T00:37:34;99495.70;;;17.70;51.48
63663;BME280;49815;51.618;0.336;2022-09-09T00:40:01;99491.16;;;18.00;51.37
63663;BME280;49815;51.618;0.336;2022-09-09T00:42:30;99492.18;;;18.20;51.24
63663;BME280;49815;51.618;0.336;2022-09-09T00:44:56;99491.06;;;17.97;51.40
63663;BME280;49815;51.618;0.336;2022-09-09T00:47:26;99489.79;;;17.89;51.69
63663;BME280;49815;51.618;0.336;2022-09-09T00:49:52;99490.95;;;17.69;51.77
63663;BME280;49815;51.618;0.336;2022-09-09T00:52:16;99490.36;;;17.54;51.92
63663;BME280;49815;51.618;0.336;2022-09-09T00:54:39;99488.22;;;17.42;52.15
63663;BME280;49815;51.618;0.336;2022-09-09T00:57:10;99488.13;;;17.06;52.56
63663;BME280;49815;51.618;0.336;2022-09-09T00:59:27;99484.02;;;17.73;52.10
63663;BME280;49815;51.618;0.336;2022-09-09T01:01:47;99481.96;;;17.78;52.00
63663;BME280;49815;51.618;0.336;2022-09-09T01:04:16;99480.19;;;17.55;52.07
63663;BME280;49815;51.618;0.336;2022-09-09T01:06:38;99475.51;;;17.65;51.91
63663;BME280;49815;51.618;0.336;2022-09-09T01:09:11;99474.06;;;17.86;51.68
63663;BME280;49815;51.618;0.336;2022-09-09T01:11:36;99472.95;;;17.91;51.66
63663;BME280;49815;51.618;0.336;2022-09-09T01:13:58;99470.28;;;17.96;51.59
63663;BME280;49815;51.618;0.336;2022-09-09T01:16:19;99469.35;;;17.67;51.53
63663;BME280;49815;51.618;0.336;2022-09-09T01:18:46;99467.63;;;18.25;51.63
63663;BME280;49815;51.618;0.336;2022-09-09T01:21:17;99467.15;;;17.63;51.66
63663;BME280;49815;51.618;0.336;2022-09-09T01:23:47;99463.18;;;17.48;51.93
63663;BME280;49815;51.618;0.336;2022-09-09T01:26:15;99457.52;;;17.88;52.01
63663;BME280;49815;51.618;0.336;2022-09-09T01:28:27;99455.33;;;17.91;51.92
63663;BME280;49815;51.618;0.336;2022-09-09T01:30:51;99449.62;;;17.74;52.28
63663;BME280;49815;51.618;0.336;2022-09-09T01:33:18;99446.24;;;17.50;52.39
63663;BME280;49815;51.618;0.336;2022-09-09T01:35:46;99438.34;;;17.55;52.70
63663;BME280;49815;51.618;0.336;2022-09-09T01:38:07;99436.62;;;17.49;52.98
63663;BME280;49815;51.618;0.336;2022-09-09T01:40:32;99435.36;;;17.67;52.93
63663;BME280;49815;51.618;0.336;2022-09-09T01:42:58;99437.48;;;17.67;52.27
63663;BME280;49815;51.618;0.336;2022-09-09T01:45:24;99437.14;;;17.81;52.64
63663;BME280;49815;51.618;0.336;2022-09-09T01:47:48;99436.58;;;17.41;52.82
63663;BME280;49815;51.618;0.336;2022-09-09T01:50:16;99437.86;;;17.82;52.72
63663;BME280;49815;51.618;0.336;2022-09-09T01:52:39;99437.48;;;17.81;52.51
63663;BME280;49815;51.618;0.336;2022-09-09T01:55:05;99436.21;;;17.85;52.36
63663;BME280;49815;51.618;0.336;2022-09-09T01:57:35;99432.93;;;17.63;52.35
63663;BME280;49815;51.618;0.336;2022-09-09T02:00:02;99432.28;;;17.49;52.76
63663;BME280;49815;51.618;0.336;2022-09-09T02:02:26;99434.94;;;17.13;53.15
63663;BME280;49815;51.618;0.336;2022-09-09T02:04:54;99437.12;;;17.02;53.34
63663;BME280;49815;51.618;0.336;2022-09-09T02:07:22;99434.33;;;16.84;53.52
63663;BME280;49815;51.618;0.336;2022-09-09T02:09:39;99433.65;;;17.18;53.41
63663;BME280;49815;51.618;0.336;2022-09-09T02:12:07;99432.82;;;17.11;53.46
63663;BME280;49815;51.618;0.336;2022-09-09T02:14:32;99430.57;;;16.91;53.28
63663;BME280;49815;51.618;0.336;2022-09-09T02:16:56;99427.06;;;16.89;53.44
63663;BME280;49815;51.618;0.336;2022-09-09T02:19:23;99428.30;;;16.91;53.68
63663;BME280;49815;51.618;0.336;2022-09-09T02:21:45;99429.01;;;16.82;53.84
63663;BME280;49815;51.618;0.336;2022-09-09T02:24:09;99429.75;;;16.69;53.82
63663;BME280;49815;51.618;0.336;2022-09-09T02:26:34;99429.68;;;16.68;54.03
63663;BME280;49815;51.618;0.336;2022-09-09T02:29:02;99429.57;;;16.80;54.11
63663;BME280;49815;51.618;0.336;2022-09-09T02:31:25;99428.73;;;16.68;53.93
63663;BME280;49815;51.618;0.336;2022-09-09T02:33:53;99430.62;;;16.52;54.10
63663;BME280;49815;51.618;0.336;2022-09-09T02:36:16;99430.25;;;16.69;54.01
63663;BME280;49815;51.618;0.336;2022-09-09T02:38:45;99430.63;;;16.87;53.85
63663;BME280;49815;51.618;0.336;2022-09-09T02:41:06;99431.00;;;16.67;53.89
63663;BME280;49815;51.618;0.336;2022-09-09T02:43:32;99432.64;;;16.75;53.84
63663;BME280;49815;51.618;0.336;2022-09-09T02:46:03;99435.72;;;17.11;53.85
63663;BME280;49815;51.618;0.336;2022-09-09T02:48:29;99437.57;;;16.63;54.06
63663;BME280;49815;51.618;0.336;2022-09-09T02:50:54;99440.54;;;16.64;54.08
63663;BME280;49815;51.618;0.336;2022-09-09T02:53:17;99443.41;;;16.69;53.96
63663;BME280;49815;51.618;0.336;2022-09-09T02:55:41;99448.17;;;16.84;53.88
63663;BME280;49815;51.618;0.336;2022-09-09T02:58:07;99447.26;;;17.48;53.60
63663;BME280;49815;51.618;0.336;2022-09-09T03:00:30;99447.00;;;17.17;53.49
63663;BME280;49815;51.618;0.336;2022-09-09T03:02:56;99447.78;;;16.98;53.48
63663;BME280;49815;51.618;0.336;2022-09-09T03:05:21;99446.27;;;16.68;53.34
63663;BME280;49815;51.618;0.336;2022-09-09T03:07:46;99448.66;;;16.90;53.42
63663;BME280;49815;51.618;0.336;2022-09-09T03:10:17;99449.12;;;17.45;53.39
63663;BME280;49815;51.618;0.336;2022-09-09T03:12:37;99446.73;;;16.75;53.89
63663;BME280;49815;51.618;0.336;2022-09-09T03:15:03;99449.06;;;17.23;53.46
63663;BME280;49815;51.618;0.336;2022-09-09T03:17:27;99449.46;;;17.28;53.39
63663;BME280;49815;51.618;0.336;2022-09-09T03:19:53;99449.51;;;17.09;53.76
63663;BME280;49815;51.618;0.336;2022-09-09T03:22:18;99446.89;;;16.38;54.04
63663;BME280;49815;51.618;0.336;2022-09-09T03:24:43;99450.58;;;16.89;53.89
63663;BME280;49815;51.618;0.336;2022-09-09T03:27:08;99452.92;;;17.39;53.83
63663;BME280;49815;51.618;0.336;2022-09-09T03:29:34;99450.07;;;17.03;53.82
63663;BME280;49815;51.618;0.336;2022-09-09T03:32:00;99453.01;;;17.04;53.93
63663;BME280;49815;51.618;0.336;2022-09-09T03:34:25;99456.42;;;16.96;54.07
63663;BME280;49815;51.618;0.336;2022-09-09T03:36:50;99457.70;;;17.08;53.80
63663;BME280;49815;51.618;0.336;2022-09-09T03:39:16;99462.82;;;17.03;53.78
63663;BME280;49815;51.618;0.336;2022-09-09T03:41:42;99465.53;;;17.18;53.92
63663;BME280;49815;51.618;0.336;2022-09-09T03:44:07;99468.73;;;17.21;53.95
63663;BME280;49815;51.618;0.336;2022-09-09T03:46:32;99467.53;;;17.11;53.98
63663;BME280;49815;51.618;0.336;2022-09-09T03:48:58;99471.05;;;17.24;53.70
63663;BME280;49815;51.618;0.336;2022-09-09T03:51:23;99474.06;;;16.87;53.68
63663;BME280;49815;51.618;0.336;2022-09-09T03:53:48;99476.76;;;17.26;53.54
63663;BME280;49815;51.618;0.336;2022-09-09T03:56:14;99474.76;;;17.22;53.17
63663;BME280;49815;51.618;0.336;2022-09-09T03:58:39;99474.80;;;17.16;53.14
63663;BME280;49815;51.618;0.336;2022-09-09T04:01:06;99475.07;;;17.24;53.70
63663;BME280;49815;51.618;0.336;2022-09-09T04:03:31;99476.98;;;17.03;53.79
63663;BME280;49815;51.618;0.336;2022-09-09T04:05:56;99476.29;;;17.34;53.77
63663;BME280;49815;51.618;0.336;2022-09-09T04:08:22;99477.18;;;16.82;54.43
63663;BME280;49815;51.618;0.336;2022-09-09T04:10:47;99475.88;;;17.26;53.87
63663;BME280;49815;51.618;0.336;2022-09-09T04:13:12;99475.20;;;16.97;53.91
63663;BME280;49815;51.618;0.336;2022-09-09T04:15:37;99473.97;;;16.77;54.12
63663;BME280;49815;51.618;0.336;2022-09-09T04:18:02;99477.24;;;17.02;54.02
63663;BME280;49815;51.618;0.336;2022-09-09T04:20:28;99474.16;;;17.32;53.48
63663;BME280;49815;51.618;0.336;2022-09-09T04:22:54;99479.78;;;16.89;54.61
63663;BME280;49815;51.618;0.336;2022-09-09T04:25:20;99477.89;;;16.21;55.92
63663;BME280;49815;51.618;0.336;2022-09-09T04:27:45;99477.09;;;16.01;55.78
63663;BME280;49815;51.618;0.336;2022-09-09T04:30:10;99478.69;;;16.05;56.53
63663;BME280;49815;51.618;0.336;2022-09-09T04:32:35;99475.83;;;16.16;56.62
63663;BME280;49815;51.618;0.336;2022-09-09T04:35:01;99474.27;;;16.67;55.91
63663;BME280;49815;51.618;0.336;2022-09-09T04:37:26;99472.43;;;16.42;56.28
63663;BME280;49815;51.618;0.336;2022-09-09T04:39:52;99474.12;;;16.64;55.48
63663;BME280;49815;51.618;0.336;2022-09-09T04:42:22;99475.65;;;16.51;55.23
63663;BME280;49815;51.618;0.336;2022-09-09T04:44:42;99479.12;;;16.60;55.17
63663;BME280;49815;51.618;0.336;2022-09-09T04:47:08;99481.57;;;16.80;55.07
63663;BME280;49815;51.618;0.336;2022-09-09T04:49:33;99485.76;;;16.73;54.38
63663;BME280;49815;51.618;0.336;2022-09-09T04:52:00;99485.03;;;16.97;54.19
63663;BME280;49815;51.618;0.336;2022-09-09T04:54:26;99485.16;;;16.83;54.34
63663;BME280;49815;51.618;0.336;2022-09-09T04:56:50;99486.02;;;16.81;54.52
63663;BME280;49815;51.618;0.336;2022-09-09T04:59:16;99485.81;;;16.60;54.28
63663;BME280;49815;51.618;0.336;2022-09-09T05:01:41;99488.13;;;16.87;54.25
63663;BME280;49815;51.618;0.336;2022-09-09T05:04:06;99487.90;;;16.70;54.52
63663;BME280;49815;51.618;0.336;2022-09-09T05:11:23;99490.48;;;16.61;54.47
63663;BME280;49815;51.618;0.336;2022-09-09T05:13:48;99493.49;;;16.58;54.19
63663;BME280;49815;51.618;0.336;2022-09-09T05:16:13;99496.03;;;16.68;54.63
63663;BME280;49815;51.618;0.336;2022-09-09T05:18:38;99494.99;;;16.49;54.39
63663;BME280;49815;51.618;0.336;2022-09-09T05:21:03;99496.48;;;16.67;54.29
63663;BME280;49815;51.618;0.336;2022-09-09T05:23:28;99502.39;;;17.05;54.09
63663;BME280;49815;51.618;0.336;2022-09-09T05:25:55;99502.80;;;16.87;54.29
63663;BME280;49815;51.618;0.336;2022-09-09T05:28:19;99506.60;;;16.04;55.72
63663;BME280;49815;51.618;0.336;2022-09-09T05:30:45;99507.60;;;16.55;54.77
63663;BME280;49815;51.618;0.336;2022-09-09T05:33:09;99509.81;;;16.83;54.75
63663;BME280;49815;51.618;0.336;2022-09-09T05:35:35;99511.15;;;16.21;55.02
63663;BME280;49815;51.618;0.336;2022-09-09T05:38:00;99518.65;;;16.14;55.45
63663;BME280;49815;51.618;0.336;2022-09-09T05:40:25;99521.53;;;16.50;54.85
63663;BME280;49815;51.618;0.336;2022-09-09T05:42:51;99524.54;;;16.47;54.65
63663;BME280;49815;51.618;0.336;2022-09-09T05:45:17;99531.97;;;16.73;54.00
63663;BME280;49815;51.618;0.336;2022-09-09T05:47:42;99534.89;;;17.00;53.80
63663;BME280;49815;51.618;0.336;2022-09-09T05:50:08;99539.87;;;16.89;53.58
63663;BME280;49815;51.618;0.336;2022-09-09T05:52:32;99545.68;;;17.10;53.51
63663;BME280;49815;51.618;0.336;2022-09-09T05:54:58;99548.00;;;16.53;54.00
63663;BME280;49815;51.618;0.336;2022-09-09T05:57:23;99551.53;;;16.66;53.90
63663;BME280;49815;51.618;0.336;2022-09-09T05:59:49;99553.03;;;16.54;53.17
63663;BME280;49815;51.618;0.336;2022-09-09T06:02:15;99556.23;;;16.30;54.48
63663;BME280;49815;51.618;0.336;2022-09-09T06:04:40;99555.77;;;16.46;53.99
63663;BME280;49815;51.618;0.336;2022-09-09T06:07:06;99561.77;;;16.45;54.24
63663;BME280;49815;51.618;0.336;2022-09-09T06:09:31;99559.91;;;16.69;53.94
63663;BME280;49815;51.618;0.336;2022-09-09T06:11:57;99561.77;;;16.39;53.34
63663;BME280;49815;51.618;0.336;2022-09-09T06:14:22;99561.56;;;16.71;53.20
63663;BME280;49815;51.618;0.336;2022-09-09T06:16:47;99562.51;;;16.70;53.64
63663;BME280;49815;51.618;0.336;2022-09-09T06:19:12;99565.88;;;17.00;53.54
63663;BME280;49815;51.618;0.336;2022-09-09T06:21:37;99568.69;;;16.56;53.75
63663;BME280;49815;51.618;0.336;2022-09-09T06:24:04;99570.49;;;16.46;53.59
63663;BME280;49815;51.618;0.336;2022-09-09T06:26:30;99571.09;;;16.83;53.63
63663;BME280;49815;51.618;0.336;2022-09-09T06:28:55;99573.67;;;16.80;53.47
63663;BME280;49815;51.618;0.336;2022-09-09T06:31:21;99574.14;;;17.28;53.52
63663;BME280;49815;51.618;0.336;2022-09-09T06:33:47;99575.65;;;16.71;53.77
63663;BME280;49815;51.618;0.336;2022-09-09T06:36:11;99577.54;;;16.01;54.66
63663;BME280;49815;51.618;0.336;2022-09-09T06:38:36;99576.67;;;16.23;55.69
63663;BME280;49815;51.618;0.336;2022-09-09T06:41:02;99580.28;;;16.98;54.28
63663;BME280;49815;51.618;0.336;2022-09-09T06:43:26;99581.70;;;17.06;53.41
63663;BME280;49815;51.618;0.336;2022-09-09T06:45:54;99582.03;;;16.90;53.14
63663;BME280;49815;51.618;0.336;2022-09-09T06:48:17;99588.62;;;16.64;54.22
63663;BME280;49815;51.618;0.336;2022-09-09T06:50:43;99591.60;;;16.81;53.61
63663;BME280;49815;51.618;0.336;2022-09-09T06:53:08;99595.17;;;15.79;55.24
63663;BME280;49815;51.618;0.336;2022-09-09T06:55:34;99595.56;;;16.98;54.16
63663;BME280;49815;51.618;0.336;2022-09-09T06:58:00;99602.00;;;15.90;55.44
63663;BME280;49815;51.618;0.336;2022-09-09T07:00:25;99600.49;;;16.35;54.55
63663;BME280;49815;51.618;0.336;2022-09-09T07:02:52;99605.59;;;17.06;53.60
63663;BME280;49815;51.618;0.336;2022-09-09T07:05:17;99611.19;;;16.65;54.11
63663;BME280;49815;51.618;0.336;2022-09-09T07:07:42;99614.64;;;17.18;53.18
63663;BME280;49815;51.618;0.336;2022-09-09T07:10:08;99618.57;;;17.40;52.23
63663;BME280;49815;51.618;0.336;2022-09-09T07:12:33;99622.15;;;18.21;50.97
63663;BME280;49815;51.618;0.336;2022-09-09T07:14:59;99623.75;;;17.86;50.71
63663;BME280;49815;51.618;0.336;2022-09-09T07:17:27;99625.38;;;17.44;52.31
63663;BME280;49815;51.618;0.336;2022-09-09T07:19:48;99631.32;;;16.52;53.83
63663;BME280;49815;51.618;0.336;2022-09-09T07:22:13;99633.72;;;16.36;54.28
63663;BME280;49815;51.618;0.336;2022-09-09T07:24:38;99637.67;;;17.66;51.90
63663;BME280;49815;51.618;0.336;2022-09-09T07:27:04;99637.81;;;17.77;52.14
63663;BME280;49815;51.618;0.336;2022-09-09T07:29:30;99643.70;;;17.50;51.25
63663;BME280;49815;51.618;0.336;2022-09-09T07:31:55;99644.66;;;17.67;51.70
63663;BME280;49815;51.618;0.336;2022-09-09T07:34:21;99646.64;;;17.55;51.42
63663;BME280;49815;51.618;0.336;2022-09-09T07:36:46;99650.59;;;17.22;52.51
63663;BME280;49815;51.618;0.336;2022-09-09T07:39:13;99650.60;;;17.60;52.25
63663;BME280;49815;51.618;0.336;2022-09-09T07:41:40;99656.88;;;17.91;50.87
63663;BME280;49815;51.618;0.336;2022-09-09T07:44:05;99664.97;;;18.60;50.45
63663;BME280;49815;51.618;0.336;2022-09-09T07:46:27;99667.80;;;17.28;52.24
63663;BME280;49815;51.618;0.336;2022-09-09T07:48:55;99670.89;;;17.63;51.20
63663;BME280;49815;51.618;0.336;2022-09-09T07:51:22;99678.69;;;17.52;51.88
63663;BME280;49815;51.618;0.336;2022-09-09T07:53:46;99675.01;;;18.10;51.26
63663;BME280;49815;51.618;0.336;2022-09-09T07:56:10;99679.47;;;18.86;50.72
63663;BME280;49815;51.618;0.336;2022-09-09T07:58:35;99677.63;;;17.32;50.85
63663;BME280;49815;51.618;0.336;2022-09-09T08:01:06;99679.53;;;17.91;50.43
63663;BME280;49815;51.618;0.336;2022-09-09T08:03:26;99679.41;;;17.83;50.73
63663;BME280;49815;51.618;0.336;2022-09-09T08:05:51;99684.53;;;18.36;49.83
63663;BME280;49815;51.618;0.336;2022-09-09T08:08:16;99692.13;;;18.30;49.54
63663;BME280;49815;51.618;0.336;2022-09-09T08:10:42;99692.02;;;18.59;49.13
63663;BME280;49815;51.618;0.336;2022-09-09T08:13:11;99691.09;;;18.42;50.02
63663;BME280;49815;51.618;0.336;2022-09-09T08:15:33;99693.92;;;17.67;50.21
63663;BME280;49815;51.618;0.336;2022-09-09T08:17:58;99694.80;;;17.98;50.76
63663;BME280;49815;51.618;0.336;2022-09-09T08:20:24;99693.96;;;17.44;50.46
63663;BME280;49815;51.618;0.336;2022-09-09T08:22:49;99698.14;;;17.75;50.41
63663;BME280;49815;51.618;0.336;2022-09-09T08:25:15;99701.05;;;18.14;50.56
63663;BME280;49815;51.618;0.336;2022-09-09T08:27:40;99702.44;;;17.92;50.34
63663;BME280;49815;51.618;0.336;2022-09-09T08:30:06;99707.44;;;17.75;50.64
63663;BME280;49815;51.618;0.336;2022-09-09T08:32:31;99712.86;;;17.43;51.84
63663;BME280;49815;51.618;0.336;2022-09-09T08:34:56;99718.19;;;17.54;51.04
63663;BME280;49815;51.618;0.336;2022-09-09T08:37:22;99716.77;;;18.26;50.68
63663;BME280;49815;51.618;0.336;2022-09-09T08:39:47;99719.79;;;19.12;47.99
63663;BME280;49815;51.618;0.336;2022-09-09T08:42:28;99722.97;;;19.80;47.73
63663;BME280;49815;51.618;0.336;2022-09-09T08:44:49;99721.71;;;19.56;46.91
63663;BME280;49815;51.618;0.336;2022-09-09T08:47:10;99718.56;;;19.91;45.88
63663;BME280;49815;51.618;0.336;2022-09-09T08:49:43;99723.74;;;19.34;46.80
63663;BME280;49815;51.618;0.336;2022-09-09T08:51:56;99725.36;;;19.23;46.85
63663;BME280;49815;51.618;0.336;2022-09-09T08:54:21;99733.37;;;17.22;51.19
63663;BME280;49815;51.618;0.336;2022-09-09T08:56:45;99736.17;;;18.80;49.06
63663;BME280;49815;51.618;0.336;2022-09-09T08:59:13;99738.03;;;19.44;48.20
63663;BME280;49815;51.618;0.336;2022-09-09T09:01:43;99740.67;;;19.59;47.49
63663;BME280;49815;51.618;0.336;2022-09-09T09:04:06;99742.53;;;19.95;45.98
63663;BME280;49815;51.618;0.336;2022-09-09T09:06:38;99749.22;;;19.32;46.82
63663;BME280;49815;51.618;0.336;2022-09-09T09:08:58;99755.87;;;19.05;47.74
63663;BME280;49815;51.618;0.336;2022-09-09T09:11:18;99760.71;;;19.41;46.07
63663;BME280;49815;51.618;0.336;2022-09-09T09:13:47;99762.84;;;19.66;46.90
63663;BME280;49815;51.618;0.336;2022-09-09T09:16:17;99763.80;;;18.36;48.19
63663;BME280;49815;51.618;0.336;2022-09-09T09:18:34;99768.86;;;17.53;50.57
63663;BME280;49815;51.618;0.336;2022-09-09T09:21:05;99775.90;;;17.29;49.95
63663;BME280;49815;51.618;0.336;2022-09-09T09:23:32;99774.37;;;18.19;49.59
63663;BME280;49815;51.618;0.336;2022-09-09T09:25:51;99781.65;;;19.36;47.29
63663;BME280;49815;51.618;0.336;2022-09-09T09:28:17;99785.16;;;18.81;46.81
63663;BME280;49815;51.618;0.336;2022-09-09T09:30:44;99787.18;;;19.09;47.36
63663;BME280;49815;51.618;0.336;2022-09-09T09:35:31;99789.67;;;20.23;45.70
63663;BME280;49815;51.618;0.336;2022-09-09T09:37:56;99791.78;;;19.89;43.98
63663;BME280;49815;51.618;0.336;2022-09-09T09:40:22;99792.50;;;20.04;44.88
63663;BME280;49815;51.618;0.336;2022-09-09T09:42:52;99796.66;;;19.79;45.35
63663;BME280;49815;51.618;0.336;2022-09-09T09:45:17;99796.92;;;19.57;45.16
63663;BME280;49815;51.618;0.336;2022-09-09T09:47:36;99799.37;;;19.68;44.68
63663;BME280;49815;51.618;0.336;2022-09-09T09:52:30;99809.48;;;19.71;45.22
63663;BME280;49815;51.618;0.336;2022-09-09T09:54:53;99808.25;;;19.57;45.03
63663;BME280;49815;51.618;0.336;2022-09-09T09:57:18;99812.18;;;18.67;45.64
63663;BME280;49815;51.618;0.336;2022-09-09T09:59:43;99817.89;;;19.40;46.54
63663;BME280;49815;51.618;0.336;2022-09-09T10:02:15;99820.04;;;17.99;47.70
63663;BME280;49815;51.618;0.336;2022-09-09T10:04:33;99823.97;;;19.67;45.69
63663;BME280;49815;51.618;0.336;2022-09-09T10:06:58;99825.78;;;19.26;45.37
63663;BME280;49815;51.618;0.336;2022-09-09T10:09:24;99828.53;;;18.63;45.45
63663;BME280;49815;51.618;0.336;2022-09-09T10:11:55;99827.67;;;19.73;44.32
63663;BME280;49815;51.618;0.336;2022-09-09T10:14:18;99822.66;;;20.52;43.41
63663;BME280;49815;51.618;0.336;2022-09-09T10:16:50;99826.21;;;18.82;45.73
63663;BME280;49815;51.618;0.336;2022-09-09T10:19:05;99827.36;;;18.71;45.99
63663;BME280;49815;51.618;0.336;2022-09-09T10:21:46;99827.93;;;19.22;46.56
63663;BME280;49815;51.618;0.336;2022-09-09T10:24:10;99830.38;;;20.05;43.62
63663;BME280;49815;51.618;0.336;2022-09-09T10:26:30;99827.33;;;20.49;43.37
63663;BME280;49815;51.618;0.336;2022-09-09T10:28:59;99826.91;;;20.68;43.28
63663;BME280;49815;51.618;0.336;2022-09-09T10:31:19;99827.51;;;21.21;41.79
63663;BME280;49815;51.618;0.336;2022-09-09T10:33:47;99827.68;;;20.34;44.25
63663;BME280;49815;51.618;0.336;2022-09-09T10:36:07;99822.76;;;21.58;42.88
63663;BME280;49815;51.618;0.336;2022-09-09T10:38:29;99830.00;;;20.60;42.52
63663;BME280;49815;51.618;0.336;2022-09-09T10:41:05;99830.10;;;20.86;42.17
63663;BME280;49815;51.618;0.336;2022-09-09T10:43:24;99838.74;;;20.01;42.96
63663;BME280;49815;51.618;0.336;2022-09-09T10:45:48;99835.90;;;20.47;41.92
63663;BME280;49815;51.618;0.336;2022-09-09T10:48:16;99833.36;;;20.64;42.12
63663;BME280;49815;51.618;0.336;2022-09-09T10:50:42;99829.55;;;21.14;40.90
63663;BME280;49815;51.618;0.336;2022-09-09T10:53:02;99840.86;;;20.46;41.83
63663;BME280;49815;51.618;0.336;2022-09-09T10:55:24;99845.21;;;20.55;43.25
63663;BME280;49815;51.618;0.336;2022-09-09T10:57:48;99846.60;;;19.58;44.62
63663;BME280;49815;51.618;0.336;2022-09-09T11:00:18;99850.71;;;19.74;45.87
63663;BME280;49815;51.618;0.336;2022-09-09T11:02:36;99852.81;;;19.68;45.80
63663;BME280;49815;51.618;0.336;2022-09-09T11:05:05;99857.18;;;20.02;46.13
63663;BME280;49815;51.618;0.336;2022-09-09T11:07:35;99854.52;;;17.95;47.31
63663;BME280;49815;51.618;0.336;2022-09-09T11:10:06;99856.60;;;18.53;48.14
63663;BME280;49815;51.618;0.336;2022-09-09T11:12:19;99861.81;;;19.04;47.26
63663;BME280;49815;51.618;0.336;2022-09-09T11:14:44;99866.97;;;17.88;50.23
63663;BME280;49815;51.618;0.336;2022-09-09T11:17:11;99866.88;;;18.43;48.80
63663;BME280;49815;51.618;0.336;2022-09-09T11:19:35;99868.87;;;18.31;49.35
63663;BME280;49815;51.618;0.336;2022-09-09T11:21:59;99870.53;;;18.16;49.29
63663;BME280;49815;51.618;0.336;2022-09-09T11:24:31;99873.03;;;18.00;49.31
63663;BME280;49815;51.618;0.336;2022-09-09T11:26:52;99872.18;;;19.57;48.45
63663;BME280;49815;51.618;0.336;2022-09-09T11:29:31;99867.52;;;19.58;47.77
63663;BME280;49815;51.618;0.336;2022-09-09T11:31:46;99868.28;;;20.40;45.55
63663;BME280;49815;51.618;0.336;2022-09-09T11:34:18;99870.89;;;20.73;43.60
63663;BME280;49815;51.618;0.336;2022-09-09T11:36:38;99860.18;;;22.14;43.01
63663;BME280;49815;51.618;0.336;2022-09-09T11:39:01;99867.46;;;22.34;41.55
63663;BME280;49815;51.618;0.336;2022-09-09T11:41:22;99872.25;;;22.61;41.44
63663;BME280;49815;51.618;0.336;2022-09-09T11:43:47;99870.59;;;22.30;41.12
63663;BME280;49815;51.618;0.336;2022-09-09T11:46:13;99872.95;;;21.28;42.12
63663;BME280;49815;51.618;0.336;2022-09-09T11:48:37;99873.79;;;21.11;42.57
63663;BME280;49815;51.618;0.336;2022-09-09T11:51:05;99884.45;;;19.98;44.79
63663;BME280;49815;51.618;0.336;2022-09-09T11:53:27;99878.29;;;20.95;43.64
63663;BME280;49815;51.618;0.336;2022-09-09T11:56:03;99880.12;;;21.09;41.85
63663;BME280;49815;51.618;0.336;2022-09-09T11:58:18;99874.11;;;21.94;42.14
63663;BME280;49815;51.618;0.336;2022-09-09T12:00:45;99874.74;;;22.57;40.30
63663;BME280;49815;51.618;0.336;2022-09-09T12:05:39;99873.97;;;24.08;36.19
63663;BME280;49815;51.618;0.336;2022-09-09T12:07:59;99883.56;;;24.40;37.06
63663;BME280;49815;51.618;0.336;2022-09-09T12:10:26;99875.10;;;23.48;36.22
63663;BME280;49815;51.618;0.336;2022-09-09T12:12:49;99878.75;;;23.30;37.64
63663;BME280;49815;51.618;0.336;2022-09-09T12:15:22;99884.46;;;23.50;37.41
63663;BME280;49815;51.618;0.336;2022-09-09T12:17:42;99880.43;;;22.76;39.25
63663;BME280;49815;51.618;0.336;2022-09-09T12:20:11;99893.30;;;19.62;45.22
63663;BME280;49815;51.618;0.336;2022-09-09T12:22:37;99904.48;;;17.65;51.42
63663;BME280;49815;51.618;0.336;2022-09-09T12:24:59;99913.47;;;16.33;60.00
63663;BME280;49815;51.618;0.336;2022-09-09T12:27:24;99907.18;;;18.19;56.63
63663;BME280;49815;51.618;0.336;2022-09-09T12:29:51;99900.02;;;18.76;52.66
63663;BME280;49815;51.618;0.336;2022-09-09T12:32:15;99901.13;;;19.70;51.02
63663;BME280;49815;51.618;0.336;2022-09-09T12:34:39;99901.05;;;19.36;49.09
63663;BME280;49815;51.618;0.336;2022-09-09T12:37:08;99902.98;;;19.68;48.21
63663;BME280;49815;51.618;0.336;2022-09-09T12:39:32;99904.12;;;20.15;46.86
63663;BME280;49815;51.618;0.336;2022-09-09T12:41:53;99906.86;;;20.07;46.57
63663;BME280;49815;51.618;0.336;2022-09-09T12:44:17;99911.54;;;20.32;46.89
63663;BME280;49815;51.618;0.336;2022-09-09T12:46:44;99910.82;;;21.22;45.36
63663;BME280;49815;51.618;0.336;2022-09-09T12:51:35;99903.98;;;22.00;44.11
63663;BME280;49815;51.618;0.336;2022-09-09T12:53:59;99901.96;;;21.38;45.04
63663;BME280;49815;51.618;0.336;2022-09-09T12:56:25;99902.86;;;21.56;42.74
63663;BME280;49815;51.618;0.336;2022-09-09T12:58:50;99901.99;;;21.65;44.98
63663;BME280;49815;51.618;0.336;2022-09-09T13:01:21;99897.62;;;21.54;44.18
63663;BME280;49815;51.618;0.336;2022-09-09T13:03:45;99899.65;;;21.75;42.72